Aviation Digital Data Service (ADDS)

Output produced by METARs form (0039 UTC 26 July 2016)
found at http://aviationweather.gov/adds/metars/
 
METAR text: KBFM 252353Z 12013KT 10SM SCT037 31/24 A2996 RMK AO2 SLP143 60005 T03060239 10339 20289 53003
Conditions at: KBFM (MOBILE/BROOKLEY , AL, US) observed 2353 UTC 25 July 2016
Temperature: 30.6°C (87°F)
Dewpoint: 23.9°C (75°F) [RH = 68%]
Pressure (altimeter): 29.96 inches Hg (1014.6 mb)
[Sea-level pressure: 1014.3 mb]
Winds: from the ESE (120 degrees) at 15 MPH (13 knots; 6.8 m/s)
Visibility: 10 or more miles (16+ km)
Ceiling: at least 12,000 feet AGL
Clouds: scattered clouds at 3700 feet AGL
Weather: no significant weather observed at this time